Madison, South Carolina
Current Conditions -  °F | °C
As of 4:35 AM on Friday 31 Oct 2014 (Local Time) from KTOC Reporting Station
Clear Clear  
Wind Chill:   Ceiling: Unl
Heat Index:   Visibility: 10mi
Dew Point:   Wind: 3mph
Humidity: 87%   Direction: 350°N
Pressure: 29.93"   Gusts: NA
Location:  34.655°N, 83.1402°W
Report Text: KTOC 310835Z AUTO 35003KT 10SM CLR 07/05 A2993 RMK AO2 T00700049
Loading
Personal Weather Stations






























Interactive Weather Map
Tropical Storm Tracking
New forecast layout! Learn more

10-Day Weather Forecast

Advertisements
Track Severe Weather on mobile